sim
Sign-in with your pilot id or email,
or register
Callsign
Passwort

Schedule Details

Flight Number: EWG1805
Departure: Gran Canaria Airport (GCLP) at 11:10
Arrival: Munich Airport (EDDM) at 15:40
Route: Eurowings Passenger Schedule. Enter filed route here before submitting Pirep.

Weather Information
Getting current METAR information for GCLP 201930Z 02013KT 9999 FEW020 24/20 Q1016 NOSIG
Getting current METAR information for EDDM 201950Z 29001KT CAVOK 11/10 Q1016 NOSIG

Schedule Frequency

Route Map